Weather at Florida Heliport

Public forecast

Using degrees Celsius for public forecast. Weather courtesy of forecast.io.

Closest aviation weather report (METAR) to Florida Heliport

Closest report is Simón Bolívar International Airport, 15.9 nm (29.4 km) WNW.

2024/05/29 11:00 (retrieved 24 minutes ago)

SVMI 291100Z 09001KT 9999 FEW016 26/22 Q1013

Closest aviation forecast (TAF) to Florida Heliport

Forecast is more than 12 hours old.

Closest forecast is Simón Bolívar International Airport, 15.9 nm (29.4 km) WNW.

2024/05/28 18:59 (retrieved 16 hours ago)

TAF SVMI 281600Z 2818/2918 09009KT 9999 FEW016 SCT080 TX33/2818Z TN24/2908Z TEMPO 2820/2823 07010KT 9000 VCDZ SCT016 BKN070 FM90000 09004KT 9999 SCT016